sensor_id;sensor_type;location;lat;lon;timestamp;P1;durP1;ratioP1;P2;durP2;ratioP2
37201;SDS011;37799;52.390;6.136;2024-02-23T00:01:03;0.10;;;0.00;;
37201;SDS011;37799;52.390;6.136;2024-02-23T00:03:28;1.10;;;0.10;;
37201;SDS011;37799;52.390;6.136;2024-02-23T00:05:53;0.68;;;0.00;;
37201;SDS011;37799;52.390;6.136;2024-02-23T00:08:19;0.28;;;0.00;;
37201;SDS011;37799;52.390;6.136;2024-02-23T00:10:44;0.52;;;0.00;;
37201;SDS011;37799;52.390;6.136;2024-02-23T00:13:09;0.90;;;0.00;;
37201;SDS011;37799;52.390;6.136;2024-02-23T00:15:35;0.43;;;0.00;;
37201;SDS011;37799;52.390;6.136;2024-02-23T00:18:00;1.45;;;0.08;;
37201;SDS011;37799;52.390;6.136;2024-02-23T00:20:28;0.03;;;0.00;;
37201;SDS011;37799;52.390;6.136;2024-02-23T00:22:53;0.28;;;0.00;;
37201;SDS011;37799;52.390;6.136;2024-02-23T00:25:19;0.30;;;0.00;;
37201;SDS011;37799;52.390;6.136;2024-02-23T00:27:44;0.38;;;0.00;;
37201;SDS011;37799;52.390;6.136;2024-02-23T00:30:09;0.47;;;0.08;;
37201;SDS011;37799;52.390;6.136;2024-02-23T00:32:35;3.83;;;0.10;;
37201;SDS011;37799;52.390;6.136;2024-02-23T00:35:00;1.38;;;0.20;;
37201;SDS011;37799;52.390;6.136;2024-02-23T00:37:26;3.63;;;0.20;;
37201;SDS011;37799;52.390;6.136;2024-02-23T00:39:51;5.68;;;0.28;;
37201;SDS011;37799;52.390;6.136;2024-02-23T00:42:16;1.48;;;0.20;;
37201;SDS011;37799;52.390;6.136;2024-02-23T00:44:41;2.70;;;0.17;;
37201;SDS011;37799;52.390;6.136;2024-02-23T00:47:07;2.22;;;0.20;;
37201;SDS011;37799;52.390;6.136;2024-02-23T00:49:32;1.40;;;0.20;;
37201;SDS011;37799;52.390;6.136;2024-02-23T00:51:57;1.13;;;0.20;;
37201;SDS011;37799;52.390;6.136;2024-02-23T00:54:23;1.63;;;0.20;;
37201;SDS011;37799;52.390;6.136;2024-02-23T00:56:48;1.90;;;0.30;;
37201;SDS011;37799;52.390;6.136;2024-02-23T00:59:13;4.20;;;0.80;;
37201;SDS011;37799;52.390;6.136;2024-02-23T01:01:38;4.18;;;0.22;;
37201;SDS011;37799;52.390;6.136;2024-02-23T01:04:04;3.58;;;0.40;;
37201;SDS011;37799;52.390;6.136;2024-02-23T01:06:29;1.98;;;0.20;;
37201;SDS011;37799;52.390;6.136;2024-02-23T01:08:54;3.33;;;0.32;;
37201;SDS011;37799;52.390;6.136;2024-02-23T01:11:20;1.38;;;0.25;;
37201;SDS011;37799;52.390;6.136;2024-02-23T01:13:45;3.20;;;0.20;;
37201;SDS011;37799;52.390;6.136;2024-02-23T01:16:10;3.55;;;0.52;;
37201;SDS011;37799;52.390;6.136;2024-02-23T01:18:36;1.05;;;0.13;;
37201;SDS011;37799;52.390;6.136;2024-02-23T01:21:01;4.22;;;0.30;;
37201;SDS011;37799;52.390;6.136;2024-02-23T01:23:26;4.68;;;0.30;;
37201;SDS011;37799;52.390;6.136;2024-02-23T01:25:52;4.90;;;0.65;;
37201;SDS011;37799;52.390;6.136;2024-02-23T01:28:17;5.10;;;0.60;;
37201;SDS011;37799;52.390;6.136;2024-02-23T01:30:42;5.90;;;0.50;;
37201;SDS011;37799;52.390;6.136;2024-02-23T01:33:08;5.57;;;0.38;;
37201;SDS011;37799;52.390;6.136;2024-02-23T01:35:33;6.57;;;0.68;;
37201;SDS011;37799;52.390;6.136;2024-02-23T01:37:58;3.08;;;0.50;;
37201;SDS011;37799;52.390;6.136;2024-02-23T01:40:23;5.38;;;0.50;;
37201;SDS011;37799;52.390;6.136;2024-02-23T01:42:49;4.95;;;0.60;;
37201;SDS011;37799;52.390;6.136;2024-02-23T01:45:24;3.70;;;0.55;;
37201;SDS011;37799;52.390;6.136;2024-02-23T01:47:50;8.35;;;0.65;;
37201;SDS011;37799;52.390;6.136;2024-02-23T01:50:15;2.60;;;0.40;;
37201;SDS011;37799;52.390;6.136;2024-02-23T01:52:40;5.00;;;0.60;;
37201;SDS011;37799;52.390;6.136;2024-02-23T01:55:06;2.83;;;0.50;;
37201;SDS011;37799;52.390;6.136;2024-02-23T01:57:32;7.70;;;1.10;;
37201;SDS011;37799;52.390;6.136;2024-02-23T01:59:59;1.75;;;0.20;;
37201;SDS011;37799;52.390;6.136;2024-02-23T02:02:24;5.55;;;0.57;;
37201;SDS011;37799;52.390;6.136;2024-02-23T02:04:49;5.82;;;0.57;;
37201;SDS011;37799;52.390;6.136;2024-02-23T02:07:15;4.75;;;0.50;;
37201;SDS011;37799;52.390;6.136;2024-02-23T02:09:40;4.97;;;0.40;;
37201;SDS011;37799;52.390;6.136;2024-02-23T02:12:05;3.95;;;0.60;;
37201;SDS011;37799;52.390;6.136;2024-02-23T02:14:30;3.00;;;0.20;;
37201;SDS011;37799;52.390;6.136;2024-02-23T02:16:58;1.77;;;0.10;;
37201;SDS011;37799;52.390;6.136;2024-02-23T02:19:23;4.93;;;0.10;;
37201;SDS011;37799;52.390;6.136;2024-02-23T02:21:48;3.10;;;0.10;;
37201;SDS011;37799;52.390;6.136;2024-02-23T02:24:14;0.90;;;0.00;;
37201;SDS011;37799;52.390;6.136;2024-02-23T02:26:39;1.65;;;0.40;;
37201;SDS011;37799;52.390;6.136;2024-02-23T02:29:04;2.05;;;0.30;;
37201;SDS011;37799;52.390;6.136;2024-02-23T02:31:29;2.42;;;0.20;;
37201;SDS011;37799;52.390;6.136;2024-02-23T02:34:01;0.10;;;0.00;;
37201;SDS011;37799;52.390;6.136;2024-02-23T02:36:27;2.60;;;0.40;;
37201;SDS011;37799;52.390;6.136;2024-02-23T02:38:52;2.03;;;0.40;;
37201;SDS011;37799;52.390;6.136;2024-02-23T02:41:17;1.85;;;0.20;;
37201;SDS011;37799;52.390;6.136;2024-02-23T02:43:44;2.25;;;0.30;;
37201;SDS011;37799;52.390;6.136;2024-02-23T02:46:09;3.50;;;0.30;;
37201;SDS011;37799;52.390;6.136;2024-02-23T02:48:35;1.00;;;0.08;;
37201;SDS011;37799;52.390;6.136;2024-02-23T02:51:00;1.85;;;0.13;;
37201;SDS011;37799;52.390;6.136;2024-02-23T02:53:25;2.22;;;0.25;;
37201;SDS011;37799;52.390;6.136;2024-02-23T02:55:50;2.78;;;0.30;;
37201;SDS011;37799;52.390;6.136;2024-02-23T02:58:16;2.75;;;0.20;;
37201;SDS011;37799;52.390;6.136;2024-02-23T03:00:41;3.10;;;0.30;;
37201;SDS011;37799;52.390;6.136;2024-02-23T03:03:08;3.83;;;0.73;;
37201;SDS011;37799;52.390;6.136;2024-02-23T03:05:33;4.72;;;0.60;;
37201;SDS011;37799;52.390;6.136;2024-02-23T03:07:58;6.20;;;1.02;;
37201;SDS011;37799;52.390;6.136;2024-02-23T03:10:24;5.65;;;1.23;;
37201;SDS011;37799;52.390;6.136;2024-02-23T03:12:49;8.95;;;1.13;;
37201;SDS011;37799;52.390;6.136;2024-02-23T03:15:17;7.38;;;1.73;;
37201;SDS011;37799;52.390;6.136;2024-02-23T03:17:42;7.93;;;1.15;;
37201;SDS011;37799;52.390;6.136;2024-02-23T03:20:08;7.57;;;1.27;;
37201;SDS011;37799;52.390;6.136;2024-02-23T03:22:34;4.68;;;1.00;;
37201;SDS011;37799;52.390;6.136;2024-02-23T03:25:00;7.88;;;1.00;;
37201;SDS011;37799;52.390;6.136;2024-02-23T03:27:27;11.18;;;1.90;;
37201;SDS011;37799;52.390;6.136;2024-02-23T03:29:54;5.93;;;0.98;;
37201;SDS011;37799;52.390;6.136;2024-02-23T03:32:19;6.05;;;1.50;;
37201;SDS011;37799;52.390;6.136;2024-02-23T03:34:45;9.75;;;1.23;;
37201;SDS011;37799;52.390;6.136;2024-02-23T03:37:10;10.02;;;1.10;;
37201;SDS011;37799;52.390;6.136;2024-02-23T03:39:35;4.85;;;0.57;;
37201;SDS011;37799;52.390;6.136;2024-02-23T03:42:02;4.82;;;0.80;;
37201;SDS011;37799;52.390;6.136;2024-02-23T03:44:27;7.30;;;0.90;;
37201;SDS011;37799;52.390;6.136;2024-02-23T03:46:52;5.85;;;0.82;;
37201;SDS011;37799;52.390;6.136;2024-02-23T03:49:17;4.57;;;0.73;;
37201;SDS011;37799;52.390;6.136;2024-02-23T03:51:43;9.98;;;1.60;;
37201;SDS011;37799;52.390;6.136;2024-02-23T03:54:09;7.45;;;0.77;;
37201;SDS011;37799;52.390;6.136;2024-02-23T03:56:37;7.20;;;1.13;;
37201;SDS011;37799;52.390;6.136;2024-02-23T03:59:06;8.45;;;0.82;;
37201;SDS011;37799;52.390;6.136;2024-02-23T04:01:34;6.55;;;0.95;;
37201;SDS011;37799;52.390;6.136;2024-02-23T04:04:00;6.88;;;1.00;;
37201;SDS011;37799;52.390;6.136;2024-02-23T04:06:25;8.43;;;0.88;;
37201;SDS011;37799;52.390;6.136;2024-02-23T04:08:51;6.78;;;1.27;;
37201;SDS011;37799;52.390;6.136;2024-02-23T04:11:16;4.10;;;1.23;;
37201;SDS011;37799;52.390;6.136;2024-02-23T04:13:41;3.88;;;1.13;;
37201;SDS011;37799;52.390;6.136;2024-02-23T04:16:06;5.25;;;1.00;;
37201;SDS011;37799;52.390;6.136;2024-02-23T04:18:32;5.60;;;1.38;;
37201;SDS011;37799;52.390;6.136;2024-02-23T04:20:57;7.50;;;1.08;;
37201;SDS011;37799;52.390;6.136;2024-02-23T04:23:22;3.78;;;0.85;;
37201;SDS011;37799;52.390;6.136;2024-02-23T04:25:48;5.57;;;0.88;;
37201;SDS011;37799;52.390;6.136;2024-02-23T04:28:13;3.95;;;0.75;;
37201;SDS011;37799;52.390;6.136;2024-02-23T04:30:38;6.75;;;1.27;;
37201;SDS011;37799;52.390;6.136;2024-02-23T04:33:03;5.70;;;1.08;;
37201;SDS011;37799;52.390;6.136;2024-02-23T04:35:29;4.32;;;0.73;;
37201;SDS011;37799;52.390;6.136;2024-02-23T04:37:54;4.85;;;0.90;;
37201;SDS011;37799;52.390;6.136;2024-02-23T04:40:19;6.05;;;1.10;;
37201;SDS011;37799;52.390;6.136;2024-02-23T04:42:45;3.63;;;0.52;;
37201;SDS011;37799;52.390;6.136;2024-02-23T04:45:12;7.45;;;1.17;;
37201;SDS011;37799;52.390;6.136;2024-02-23T04:47:37;6.85;;;1.15;;
37201;SDS011;37799;52.390;6.136;2024-02-23T04:50:05;10.85;;;1.50;;
37201;SDS011;37799;52.390;6.136;2024-02-23T04:52:31;3.03;;;0.82;;
37201;SDS011;37799;52.390;6.136;2024-02-23T04:54:56;7.85;;;1.50;;
37201;SDS011;37799;52.390;6.136;2024-02-23T04:57:22;8.30;;;1.45;;
37201;SDS011;37799;52.390;6.136;2024-02-23T04:59:47;8.45;;;1.15;;
37201;SDS011;37799;52.390;6.136;2024-02-23T05:02:12;3.83;;;1.20;;
37201;SDS011;37799;52.390;6.136;2024-02-23T05:04:38;9.70;;;1.45;;
37201;SDS011;37799;52.390;6.136;2024-02-23T05:07:03;6.50;;;1.30;;
37201;SDS011;37799;52.390;6.136;2024-02-23T05:09:29;6.05;;;1.02;;
37201;SDS011;37799;52.390;6.136;2024-02-23T05:11:54;6.50;;;1.05;;
37201;SDS011;37799;52.390;6.136;2024-02-23T05:14:20;4.57;;;0.77;;
37201;SDS011;37799;52.390;6.136;2024-02-23T05:16:45;10.65;;;2.10;;
37201;SDS011;37799;52.390;6.136;2024-02-23T05:19:10;5.70;;;1.20;;
37201;SDS011;37799;52.390;6.136;2024-02-23T05:21:35;5.53;;;1.00;;
37201;SDS011;37799;52.390;6.136;2024-02-23T05:24:01;5.85;;;1.35;;
37201;SDS011;37799;52.390;6.136;2024-02-23T05:26:26;6.20;;;1.48;;
37201;SDS011;37799;52.390;6.136;2024-02-23T05:28:51;4.18;;;1.15;;
37201;SDS011;37799;52.390;6.136;2024-02-23T05:31:17;5.55;;;0.90;;
37201;SDS011;37799;52.390;6.136;2024-02-23T05:33:43;6.63;;;1.50;;
37201;SDS011;37799;52.390;6.136;2024-02-23T05:36:08;10.95;;;1.55;;
37201;SDS011;37799;52.390;6.136;2024-02-23T05:38:33;7.88;;;1.13;;
37201;SDS011;37799;52.390;6.136;2024-02-23T05:40:58;7.53;;;1.40;;
37201;SDS011;37799;52.390;6.136;2024-02-23T05:43:24;7.20;;;1.60;;
37201;SDS011;37799;52.390;6.136;2024-02-23T05:45:49;6.55;;;1.48;;
37201;SDS011;37799;52.390;6.136;2024-02-23T05:48:14;8.77;;;1.40;;
37201;SDS011;37799;52.390;6.136;2024-02-23T05:50:40;7.53;;;1.17;;
37201;SDS011;37799;52.390;6.136;2024-02-23T05:53:05;5.68;;;0.93;;
37201;SDS011;37799;52.390;6.136;2024-02-23T05:55:30;3.75;;;0.75;;
37201;SDS011;37799;52.390;6.136;2024-02-23T05:57:56;7.93;;;1.25;;
37201;SDS011;37799;52.390;6.136;2024-02-23T06:00:21;4.25;;;1.08;;
37201;SDS011;37799;52.390;6.136;2024-02-23T06:02:47;6.00;;;1.50;;
37201;SDS011;37799;52.390;6.136;2024-02-23T06:05:12;5.15;;;1.48;;
37201;SDS011;37799;52.390;6.136;2024-02-23T06:07:38;7.80;;;1.40;;
37201;SDS011;37799;52.390;6.136;2024-02-23T06:10:03;6.00;;;1.00;;
37201;SDS011;37799;52.390;6.136;2024-02-23T06:12:30;4.07;;;1.10;;
37201;SDS011;37799;52.390;6.136;2024-02-23T06:14:55;5.00;;;0.80;;
37201;SDS011;37799;52.390;6.136;2024-02-23T06:17:21;2.67;;;0.68;;
37201;SDS011;37799;52.390;6.136;2024-02-23T06:19:48;5.25;;;0.80;;
37201;SDS011;37799;52.390;6.136;2024-02-23T06:22:13;6.38;;;0.80;;
37201;SDS011;37799;52.390;6.136;2024-02-23T06:24:41;5.03;;;0.60;;
37201;SDS011;37799;52.390;6.136;2024-02-23T06:27:07;6.57;;;1.48;;
37201;SDS011;37799;52.390;6.136;2024-02-23T06:29:33;4.60;;;0.80;;
37201;SDS011;37799;52.390;6.136;2024-02-23T06:31:58;4.68;;;0.95;;
37201;SDS011;37799;52.390;6.136;2024-02-23T06:34:26;3.88;;;0.85;;
37201;SDS011;37799;52.390;6.136;2024-02-23T06:36:51;4.38;;;0.75;;
37201;SDS011;37799;52.390;6.136;2024-02-23T06:39:16;6.22;;;0.68;;
37201;SDS011;37799;52.390;6.136;2024-02-23T06:41:43;3.25;;;0.60;;
37201;SDS011;37799;52.390;6.136;2024-02-23T06:44:08;5.18;;;0.57;;
37201;SDS011;37799;52.390;6.136;2024-02-23T06:46:33;4.60;;;0.60;;
37201;SDS011;37799;52.390;6.136;2024-02-23T06:48:59;4.88;;;0.65;;
37201;SDS011;37799;52.390;6.136;2024-02-23T06:51:24;3.22;;;0.77;;
37201;SDS011;37799;52.390;6.136;2024-02-23T06:53:49;4.93;;;0.50;;
37201;SDS011;37799;52.390;6.136;2024-02-23T06:56:15;3.33;;;0.50;;
37201;SDS011;37799;52.390;6.136;2024-02-23T06:58:40;6.57;;;0.40;;
37201;SDS011;37799;52.390;6.136;2024-02-23T07:01:05;10.45;;;1.70;;
37201;SDS011;37799;52.390;6.136;2024-02-23T07:03:31;2.65;;;0.40;;
37201;SDS011;37799;52.390;6.136;2024-02-23T07:05:57;4.63;;;0.60;;
37201;SDS011;37799;52.390;6.136;2024-02-23T07:08:22;4.97;;;0.50;;
37201;SDS011;37799;52.390;6.136;2024-02-23T07:10:48;3.53;;;0.60;;
37201;SDS011;37799;52.390;6.136;2024-02-23T07:13:13;4.88;;;0.50;;
37201;SDS011;37799;52.390;6.136;2024-02-23T07:15:38;4.43;;;0.90;;
37201;SDS011;37799;52.390;6.136;2024-02-23T07:18:04;3.78;;;0.47;;
37201;SDS011;37799;52.390;6.136;2024-02-23T07:20:29;7.97;;;0.68;;
37201;SDS011;37799;52.390;6.136;2024-02-23T07:22:55;4.57;;;0.60;;
37201;SDS011;37799;52.390;6.136;2024-02-23T07:25:20;3.78;;;0.35;;
37201;SDS011;37799;52.390;6.136;2024-02-23T07:27:46;4.45;;;0.40;;
37201;SDS011;37799;52.390;6.136;2024-02-23T07:30:11;7.07;;;0.45;;
37201;SDS011;37799;52.390;6.136;2024-02-23T07:32:37;4.85;;;0.68;;
37201;SDS011;37799;52.390;6.136;2024-02-23T07:35:03;5.72;;;0.50;;
37201;SDS011;37799;52.390;6.136;2024-02-23T07:37:29;3.97;;;0.98;;
37201;SDS011;37799;52.390;6.136;2024-02-23T07:39:54;4.85;;;0.73;;
37201;SDS011;37799;52.390;6.136;2024-02-23T07:42:20;5.22;;;0.50;;
37201;SDS011;37799;52.390;6.136;2024-02-23T07:44:45;3.95;;;0.38;;
37201;SDS011;37799;52.390;6.136;2024-02-23T07:47:11;5.70;;;0.60;;
37201;SDS011;37799;52.390;6.136;2024-02-23T07:49:37;4.95;;;0.52;;
37201;SDS011;37799;52.390;6.136;2024-02-23T07:52:02;5.47;;;0.60;;
37201;SDS011;37799;52.390;6.136;2024-02-23T07:54:28;4.50;;;0.60;;
37201;SDS011;37799;52.390;6.136;2024-02-23T07:56:53;9.25;;;1.15;;
37201;SDS011;37799;52.390;6.136;2024-02-23T07:59:19;4.68;;;0.40;;
37201;SDS011;37799;52.390;6.136;2024-02-23T08:01:44;5.35;;;0.35;;
37201;SDS011;37799;52.390;6.136;2024-02-23T08:04:10;6.38;;;0.60;;
37201;SDS011;37799;52.390;6.136;2024-02-23T08:06:35;3.78;;;0.30;;
37201;SDS011;37799;52.390;6.136;2024-02-23T08:09:00;4.68;;;0.82;;
37201;SDS011;37799;52.390;6.136;2024-02-23T08:11:26;3.70;;;0.40;;
37201;SDS011;37799;52.390;6.136;2024-02-23T08:13:51;6.13;;;0.40;;
37201;SDS011;37799;52.390;6.136;2024-02-23T08:16:16;5.18;;;0.50;;
37201;SDS011;37799;52.390;6.136;2024-02-23T08:18:42;5.75;;;0.63;;
37201;SDS011;37799;52.390;6.136;2024-02-23T08:21:07;3.90;;;0.40;;
37201;SDS011;37799;52.390;6.136;2024-02-23T08:23:35;1.45;;;0.20;;
37201;SDS011;37799;52.390;6.136;2024-02-23T08:26:01;3.35;;;0.40;;
37201;SDS011;37799;52.390;6.136;2024-02-23T08:28:26;4.65;;;0.45;;
37201;SDS011;37799;52.390;6.136;2024-02-23T08:30:51;4.72;;;0.25;;
37201;SDS011;37799;52.390;6.136;2024-02-23T08:33:18;4.90;;;0.40;;
37201;SDS011;37799;52.390;6.136;2024-02-23T08:35:43;6.22;;;0.40;;
37201;SDS011;37799;52.390;6.136;2024-02-23T08:38:08;6.55;;;0.35;;
37201;SDS011;37799;52.390;6.136;2024-02-23T08:40:34;8.85;;;0.47;;
37201;SDS011;37799;52.390;6.136;2024-02-23T08:43:00;3.55;;;0.45;;
37201;SDS011;37799;52.390;6.136;2024-02-23T08:45:25;5.03;;;0.25;;
37201;SDS011;37799;52.390;6.136;2024-02-23T08:47:50;2.67;;;0.30;;
37201;SDS011;37799;52.390;6.136;2024-02-23T08:50:15;4.18;;;0.70;;
37201;SDS011;37799;52.390;6.136;2024-02-23T08:52:41;2.78;;;0.32;;
37201;SDS011;37799;52.390;6.136;2024-02-23T08:55:06;2.35;;;0.22;;
37201;SDS011;37799;52.390;6.136;2024-02-23T08:57:32;4.03;;;0.30;;
37201;SDS011;37799;52.390;6.136;2024-02-23T08:59:57;11.07;;;0.70;;
37201;SDS011;37799;52.390;6.136;2024-02-23T09:02:23;4.80;;;0.35;;
37201;SDS011;37799;52.390;6.136;2024-02-23T09:04:51;1.73;;;0.28;;
37201;SDS011;37799;52.390;6.136;2024-02-23T09:07:17;5.07;;;0.22;;
37201;SDS011;37799;52.390;6.136;2024-02-23T09:09:45;6.90;;;0.95;;
37201;SDS011;37799;52.390;6.136;2024-02-23T09:12:10;4.28;;;0.40;;
37201;SDS011;37799;52.390;6.136;2024-02-23T09:14:36;2.80;;;0.20;;
37201;SDS011;37799;52.390;6.136;2024-02-23T09:17:03;4.95;;;1.00;;
37201;SDS011;37799;52.390;6.136;2024-02-23T09:19:29;3.60;;;0.60;;
37201;SDS011;37799;52.390;6.136;2024-02-23T09:21:54;5.20;;;0.88;;
37201;SDS011;37799;52.390;6.136;2024-02-23T09:24:20;2.75;;;0.90;;
37201;SDS011;37799;52.390;6.136;2024-02-23T09:26:48;6.18;;;0.45;;
37201;SDS011;37799;52.390;6.136;2024-02-23T09:29:13;3.85;;;0.45;;
37201;SDS011;37799;52.390;6.136;2024-02-23T09:31:39;5.47;;;0.43;;
37201;SDS011;37799;52.390;6.136;2024-02-23T09:34:04;3.80;;;0.45;;
37201;SDS011;37799;52.390;6.136;2024-02-23T09:36:29;8.25;;;0.75;;
37201;SDS011;37799;52.390;6.136;2024-02-23T09:38:55;4.85;;;0.30;;
37201;SDS011;37799;52.390;6.136;2024-02-23T09:41:21;1.38;;;0.10;;
37201;SDS011;37799;52.390;6.136;2024-02-23T09:43:48;7.38;;;0.40;;
37201;SDS011;37799;52.390;6.136;2024-02-23T09:46:17;2.42;;;0.35;;
37201;SDS011;37799;52.390;6.136;2024-02-23T09:48:43;4.68;;;0.30;;
37201;SDS011;37799;52.390;6.136;2024-02-23T09:51:10;2.45;;;0.20;;
37201;SDS011;37799;52.390;6.136;2024-02-23T09:53:37;4.57;;;0.40;;
37201;SDS011;37799;52.390;6.136;2024-02-23T09:56:03;3.28;;;0.40;;
37201;SDS011;37799;52.390;6.136;2024-02-23T09:58:29;9.93;;;0.88;;
37201;SDS011;37799;52.390;6.136;2024-02-23T10:00:59;2.92;;;0.28;;
37201;SDS011;37799;52.390;6.136;2024-02-23T10:03:27;3.78;;;0.32;;
37201;SDS011;37799;52.390;6.136;2024-02-23T10:05:56;3.58;;;0.40;;
37201;SDS011;37799;52.390;6.136;2024-02-23T10:08:26;4.05;;;0.63;;
37201;SDS011;37799;52.390;6.136;2024-02-23T10:10:52;7.80;;;0.65;;
37201;SDS011;37799;52.390;6.136;2024-02-23T10:13:24;5.13;;;0.38;;
37201;SDS011;37799;52.390;6.136;2024-02-23T10:15:52;3.13;;;0.30;;
37201;SDS011;37799;52.390;6.136;2024-02-23T10:18:18;3.22;;;0.30;;
37201;SDS011;37799;52.390;6.136;2024-02-23T10:20:44;4.05;;;0.65;;
37201;SDS011;37799;52.390;6.136;2024-02-23T10:23:10;3.05;;;0.57;;
37201;SDS011;37799;52.390;6.136;2024-02-23T10:25:36;3.97;;;0.40;;
37201;SDS011;37799;52.390;6.136;2024-02-23T10:28:05;2.65;;;0.30;;
37201;SDS011;37799;52.390;6.136;2024-02-23T10:30:31;5.25;;;0.63;;
37201;SDS011;37799;52.390;6.136;2024-02-23T10:32:57;8.13;;;0.45;;
37201;SDS011;37799;52.390;6.136;2024-02-23T10:35:23;3.83;;;0.30;;
37201;SDS011;37799;52.390;6.136;2024-02-23T10:37:50;4.47;;;0.40;;
37201;SDS011;37799;52.390;6.136;2024-02-23T10:40:17;4.32;;;0.38;;
37201;SDS011;37799;52.390;6.136;2024-02-23T10:42:43;5.03;;;0.40;;
37201;SDS011;37799;52.390;6.136;2024-02-23T10:45:16;5.45;;;0.73;;
37201;SDS011;37799;52.390;6.136;2024-02-23T10:47:43;4.25;;;0.38;;
37201;SDS011;37799;52.390;6.136;2024-02-23T10:50:09;5.38;;;0.30;;
37201;SDS011;37799;52.390;6.136;2024-02-23T10:52:42;1.73;;;0.10;;
37201;SDS011;37799;52.390;6.136;2024-02-23T10:55:13;4.03;;;0.40;;
37201;SDS011;37799;52.390;6.136;2024-02-23T10:57:39;2.40;;;0.28;;
37201;SDS011;37799;52.390;6.136;2024-02-23T11:00:05;3.13;;;0.20;;
37201;SDS011;37799;52.390;6.136;2024-02-23T11:02:36;1.73;;;0.30;;
37201;SDS011;37799;52.390;6.136;2024-02-23T11:05:08;2.17;;;0.40;;
37201;SDS011;37799;52.390;6.136;2024-02-23T11:07:40;3.33;;;0.35;;
37201;SDS011;37799;52.390;6.136;2024-02-23T11:10:06;3.38;;;0.60;;
37201;SDS011;37799;52.390;6.136;2024-02-23T11:12:33;2.92;;;0.32;;
37201;SDS011;37799;52.390;6.136;2024-02-23T11:14:59;6.05;;;0.32;;
37201;SDS011;37799;52.390;6.136;2024-02-23T11:17:31;4.35;;;0.65;;
37201;SDS011;37799;52.390;6.136;2024-02-23T11:19:58;5.97;;;0.80;;
37201;SDS011;37799;52.390;6.136;2024-02-23T11:22:31;3.05;;;0.82;;
37201;SDS011;37799;52.390;6.136;2024-02-23T11:25:06;3.08;;;0.50;;
37201;SDS011;37799;52.390;6.136;2024-02-23T11:27:36;3.00;;;0.47;;
37201;SDS011;37799;52.390;6.136;2024-02-23T11:30:06;4.13;;;0.30;;
37201;SDS011;37799;52.390;6.136;2024-02-23T11:32:46;2.35;;;0.32;;
37201;SDS011;37799;52.390;6.136;2024-02-23T11:35:13;3.75;;;0.25;;
37201;SDS011;37799;52.390;6.136;2024-02-23T11:38:13;1.98;;;0.40;;
37201;SDS011;37799;52.390;6.136;2024-02-23T11:40:33;3.28;;;0.73;;
37201;SDS011;37799;52.390;6.136;2024-02-23T11:42:58;5.38;;;0.80;;
37201;SDS011;37799;52.390;6.136;2024-02-23T11:45:25;3.63;;;0.55;;
37201;SDS011;37799;52.390;6.136;2024-02-23T11:47:52;2.58;;;0.40;;
37201;SDS011;37799;52.390;6.136;2024-02-23T11:50:18;5.63;;;0.40;;
37201;SDS011;37799;52.390;6.136;2024-02-23T11:52:45;5.70;;;0.47;;
37201;SDS011;37799;52.390;6.136;2024-02-23T11:55:11;3.72;;;0.30;;
37201;SDS011;37799;52.390;6.136;2024-02-23T11:57:36;7.60;;;0.63;;
37201;SDS011;37799;52.390;6.136;2024-02-23T12:00:03;4.13;;;0.20;;
37201;SDS011;37799;52.390;6.136;2024-02-23T12:02:35;4.15;;;0.30;;
37201;SDS011;37799;52.390;6.136;2024-02-23T12:05:00;3.92;;;0.40;;
37201;SDS011;37799;52.390;6.136;2024-02-23T12:07:26;3.80;;;0.45;;
37201;SDS011;37799;52.390;6.136;2024-02-23T12:09:54;3.92;;;0.60;;
37201;SDS011;37799;52.390;6.136;2024-02-23T12:12:19;2.13;;;0.50;;
37201;SDS011;37799;52.390;6.136;2024-02-23T12:14:45;2.53;;;0.50;;
37201;SDS011;37799;52.390;6.136;2024-02-23T12:17:10;6.18;;;0.70;;
37201;SDS011;37799;52.390;6.136;2024-02-23T12:19:38;2.80;;;0.40;;
37201;SDS011;37799;52.390;6.136;2024-02-23T12:22:05;2.10;;;0.30;;
37201;SDS011;37799;52.390;6.136;2024-02-23T12:24:30;3.42;;;1.15;;
37201;SDS011;37799;52.390;6.136;2024-02-23T12:26:55;4.63;;;0.40;;
37201;SDS011;37799;52.390;6.136;2024-02-23T12:29:21;3.30;;;0.25;;
37201;SDS011;37799;52.390;6.136;2024-02-23T12:31:46;2.80;;;0.35;;
37201;SDS011;37799;52.390;6.136;2024-02-23T12:34:12;3.15;;;0.30;;
37201;SDS011;37799;52.390;6.136;2024-02-23T12:36:38;4.03;;;0.32;;
37201;SDS011;37799;52.390;6.136;2024-02-23T12:39:04;3.22;;;0.40;;
37201;SDS011;37799;52.390;6.136;2024-02-23T12:41:29;2.95;;;0.47;;
37201;SDS011;37799;52.390;6.136;2024-02-23T12:43:55;3.78;;;0.57;;
37201;SDS011;37799;52.390;6.136;2024-02-23T12:46:20;2.78;;;0.30;;
37201;SDS011;37799;52.390;6.136;2024-02-23T12:48:45;5.78;;;0.50;;
37201;SDS011;37799;52.390;6.136;2024-02-23T12:51:11;4.38;;;0.60;;
37201;SDS011;37799;52.390;6.136;2024-02-23T12:53:38;3.08;;;0.30;;
37201;SDS011;37799;52.390;6.136;2024-02-23T12:56:07;3.45;;;0.60;;
37201;SDS011;37799;52.390;6.136;2024-02-23T12:58:40;4.07;;;0.50;;
37201;SDS011;37799;52.390;6.136;2024-02-23T13:01:07;2.67;;;0.20;;
37201;SDS011;37799;52.390;6.136;2024-02-23T13:03:33;3.08;;;0.30;;
37201;SDS011;37799;52.390;6.136;2024-02-23T13:05:59;5.80;;;0.55;;
37201;SDS011;37799;52.390;6.136;2024-02-23T13:08:25;2.80;;;0.47;;
37201;SDS011;37799;52.390;6.136;2024-02-23T13:10:51;4.93;;;0.40;;
37201;SDS011;37799;52.390;6.136;2024-02-23T13:13:20;2.60;;;0.30;;
37201;SDS011;37799;52.390;6.136;2024-02-23T13:15:46;3.47;;;0.40;;
37201;SDS011;37799;52.390;6.136;2024-02-23T13:18:12;3.75;;;0.60;;
37201;SDS011;37799;52.390;6.136;2024-02-23T13:20:38;4.18;;;0.73;;
37201;SDS011;37799;52.390;6.136;2024-02-23T13:23:04;3.78;;;0.80;;
37201;SDS011;37799;52.390;6.136;2024-02-23T13:25:30;2.75;;;0.55;;
37201;SDS011;37799;52.390;6.136;2024-02-23T13:27:56;4.32;;;0.50;;
37201;SDS011;37799;52.390;6.136;2024-02-23T13:30:22;4.32;;;0.60;;
37201;SDS011;37799;52.390;6.136;2024-02-23T13:32:48;4.13;;;0.50;;
37201;SDS011;37799;52.390;6.136;2024-02-23T13:35:13;2.67;;;0.40;;
37201;SDS011;37799;52.390;6.136;2024-02-23T13:37:39;4.10;;;0.50;;
37201;SDS011;37799;52.390;6.136;2024-02-23T13:40:05;6.40;;;1.30;;
37201;SDS011;37799;52.390;6.136;2024-02-23T13:42:31;2.03;;;0.40;;
37201;SDS011;37799;52.390;6.136;2024-02-23T13:44:56;4.60;;;0.70;;
37201;SDS011;37799;52.390;6.136;2024-02-23T13:47:21;3.83;;;0.50;;
37201;SDS011;37799;52.390;6.136;2024-02-23T13:49:47;2.97;;;0.40;;
37201;SDS011;37799;52.390;6.136;2024-02-23T13:52:12;3.65;;;0.50;;
37201;SDS011;37799;52.390;6.136;2024-02-23T13:54:37;2.92;;;0.50;;
37201;SDS011;37799;52.390;6.136;2024-02-23T13:57:02;5.47;;;0.70;;
37201;SDS011;37799;52.390;6.136;2024-02-23T13:59:28;3.30;;;0.57;;
37201;SDS011;37799;52.390;6.136;2024-02-23T14:01:53;4.53;;;0.50;;
37201;SDS011;37799;52.390;6.136;2024-02-23T14:04:18;5.40;;;0.80;;
37201;SDS011;37799;52.390;6.136;2024-02-23T14:06:44;4.07;;;0.45;;
37201;SDS011;37799;52.390;6.136;2024-02-23T14:09:09;4.82;;;0.50;;
37201;SDS011;37799;52.390;6.136;2024-02-23T14:11:35;6.18;;;0.90;;
37201;SDS011;37799;52.390;6.136;2024-02-23T14:14:00;5.13;;;0.50;;
37201;SDS011;37799;52.390;6.136;2024-02-23T14:16:27;2.53;;;0.38;;
37201;SDS011;37799;52.390;6.136;2024-02-23T14:18:53;2.45;;;0.30;;
37201;SDS011;37799;52.390;6.136;2024-02-23T14:21:18;4.88;;;0.45;;
37201;SDS011;37799;52.390;6.136;2024-02-23T14:23:46;5.72;;;0.52;;
37201;SDS011;37799;52.390;6.136;2024-02-23T14:26:11;4.82;;;0.52;;
37201;SDS011;37799;52.390;6.136;2024-02-23T14:28:37;3.90;;;0.45;;
37201;SDS011;37799;52.390;6.136;2024-02-23T14:31:02;6.35;;;0.82;;
37201;SDS011;37799;52.390;6.136;2024-02-23T14:33:28;4.22;;;0.60;;
37201;SDS011;37799;52.390;6.136;2024-02-23T14:35:54;5.53;;;0.60;;
37201;SDS011;37799;52.390;6.136;2024-02-23T14:38:20;1.55;;;0.30;;
37201;SDS011;37799;52.390;6.136;2024-02-23T14:40:45;3.38;;;0.43;;